パース の空港の天気 - METARとTAF

パース空港 ( YPPH / PER ) - オーストラリア 西オーストラリア州パース
飛行場実況気象(Metar)
観測時間04/27 12:30 AWST (04/27 04:30 UTC)
風向・風速南南西 4m/s
視程10km以上
天気現象
なし
気温24℃
湿度41%
気圧1019hPa
METARYPPH 270430Z 21008KT 180V240 CAVOK 24/10 Q1019 NOSIG
過去の天気等 Google飛行場航空写真 Wunderground天気予報

過去48時間のMETAR

飛行場予報(TAF)
発表時間: 4/27 07:05 AWST (4/26 23:05 UTC)
予報対象時間: 27日8時 AWST ~ 28日14時 AWST
風向・風速南東 4m/s
視程10km以上
なし
27日16時 AWST から
風向・風速南南西 6m/s
視程10km以上
なし
27日22時 AWST から
風向・風速東南東 6m/s
視程10km以上
なし
TAF YPPH 262305Z 2700/2806 14008KT CAVOK
FM270800 21012KT CAVOK
FM271400 11012KT CAVOK